sensor_id;sensor_type;location;lat;lon;timestamp;temperature;humidity
3198;DHT22;1611;49.394;11.136;2023-03-05T00:01:15;4.00;55.00
3198;DHT22;1611;49.394;11.136;2023-03-05T00:03:42;4.00;55.00
3198;DHT22;1611;49.394;11.136;2023-03-05T00:06:09;3.90;55.40
3198;DHT22;1611;49.394;11.136;2023-03-05T00:08:36;3.90;55.70
3198;DHT22;1611;49.394;11.136;2023-03-05T00:11:06;3.90;55.90
3198;DHT22;1611;49.394;11.136;2023-03-05T00:13:34;3.90;56.40
3198;DHT22;1611;49.394;11.136;2023-03-05T00:16:02;3.80;56.80
3198;DHT22;1611;49.394;11.136;2023-03-05T00:18:30;3.90;56.70
3198;DHT22;1611;49.394;11.136;2023-03-05T00:20:56;3.80;56.60
3198;DHT22;1611;49.394;11.136;2023-03-05T00:23:23;3.90;57.20
3198;DHT22;1611;49.394;11.136;2023-03-05T00:25:50;3.90;57.00
3198;DHT22;1611;49.394;11.136;2023-03-05T00:28:17;3.80;57.20
3198;DHT22;1611;49.394;11.136;2023-03-05T00:30:45;3.80;57.60
3198;DHT22;1611;49.394;11.136;2023-03-05T00:33:12;3.90;58.10
3198;DHT22;1611;49.394;11.136;2023-03-05T00:35:40;3.90;58.20
3198;DHT22;1611;49.394;11.136;2023-03-05T00:38:07;3.90;58.30
3198;DHT22;1611;49.394;11.136;2023-03-05T00:40:35;3.90;58.20
3198;DHT22;1611;49.394;11.136;2023-03-05T00:43:02;3.80;58.20
3198;DHT22;1611;49.394;11.136;2023-03-05T00:45:28;4.00;58.50
3198;DHT22;1611;49.394;11.136;2023-03-05T00:47:57;3.90;58.40
3198;DHT22;1611;49.394;11.136;2023-03-05T00:50:25;3.90;59.10
3198;DHT22;1611;49.394;11.136;2023-03-05T00:52:52;3.80;58.40
3198;DHT22;1611;49.394;11.136;2023-03-05T00:55:19;3.90;58.70
3198;DHT22;1611;49.394;11.136;2023-03-05T00:57:46;3.90;58.80
3198;DHT22;1611;49.394;11.136;2023-03-05T01:00:14;3.90;59.30
3198;DHT22;1611;49.394;11.136;2023-03-05T01:02:41;3.80;59.20
3198;DHT22;1611;49.394;11.136;2023-03-05T01:05:11;3.80;59.40
3198;DHT22;1611;49.394;11.136;2023-03-05T01:07:38;3.80;59.60
3198;DHT22;1611;49.394;11.136;2023-03-05T01:10:10;3.90;60.40
3198;DHT22;1611;49.394;11.136;2023-03-05T01:12:37;3.90;60.10
3198;DHT22;1611;49.394;11.136;2023-03-05T01:15:05;3.80;59.50
3198;DHT22;1611;49.394;11.136;2023-03-05T01:17:32;3.80;60.10
3198;DHT22;1611;49.394;11.136;2023-03-05T01:19:59;3.90;60.70
3198;DHT22;1611;49.394;11.136;2023-03-05T01:22:27;3.90;60.60
3198;DHT22;1611;49.394;11.136;2023-03-05T01:24:54;3.90;60.40
3198;DHT22;1611;49.394;11.136;2023-03-05T01:27:21;3.90;60.10
3198;DHT22;1611;49.394;11.136;2023-03-05T01:29:48;3.90;60.30
3198;DHT22;1611;49.394;11.136;2023-03-05T01:32:15;4.00;60.20
3198;DHT22;1611;49.394;11.136;2023-03-05T01:34:41;3.90;60.30
3198;DHT22;1611;49.394;11.136;2023-03-05T01:37:08;4.00;60.10
3198;DHT22;1611;49.394;11.136;2023-03-05T01:39:36;4.00;60.00
3198;DHT22;1611;49.394;11.136;2023-03-05T01:42:04;4.00;59.90
3198;DHT22;1611;49.394;11.136;2023-03-05T01:44:32;4.00;59.90
3198;DHT22;1611;49.394;11.136;2023-03-05T01:46:59;4.00;59.60
3198;DHT22;1611;49.394;11.136;2023-03-05T01:49:27;4.00;60.20
3198;DHT22;1611;49.394;11.136;2023-03-05T01:52:01;4.00;60.30
3198;DHT22;1611;49.394;11.136;2023-03-05T01:54:32;4.20;59.90
3198;DHT22;1611;49.394;11.136;2023-03-05T01:57:06;4.10;59.90
3198;DHT22;1611;49.394;11.136;2023-03-05T01:59:35;4.10;59.90
3198;DHT22;1611;49.394;11.136;2023-03-05T02:02:03;4.10;59.90
3198;DHT22;1611;49.394;11.136;2023-03-05T02:04:36;4.10;59.50
3198;DHT22;1611;49.394;11.136;2023-03-05T02:07:06;4.00;59.60
3198;DHT22;1611;49.394;11.136;2023-03-05T02:09:36;4.10;59.90
3198;DHT22;1611;49.394;11.136;2023-03-05T02:12:05;4.00;59.70
3198;DHT22;1611;49.394;11.136;2023-03-05T02:14:33;4.00;60.00
3198;DHT22;1611;49.394;11.136;2023-03-05T02:17:00;4.00;59.80
3198;DHT22;1611;49.394;11.136;2023-03-05T02:19:27;4.00;59.90
3198;DHT22;1611;49.394;11.136;2023-03-05T02:21:55;4.00;59.80
3198;DHT22;1611;49.394;11.136;2023-03-05T02:24:34;4.00;59.70
3198;DHT22;1611;49.394;11.136;2023-03-05T02:27:02;4.00;59.50
3198;DHT22;1611;49.394;11.136;2023-03-05T02:29:30;4.10;59.70
3198;DHT22;1611;49.394;11.136;2023-03-05T02:31:59;4.10;59.40
3198;DHT22;1611;49.394;11.136;2023-03-05T02:34:26;4.10;59.50
3198;DHT22;1611;49.394;11.136;2023-03-05T02:36:52;4.00;59.40
3198;DHT22;1611;49.394;11.136;2023-03-05T02:39:21;4.00;59.50
3198;DHT22;1611;49.394;11.136;2023-03-05T02:41:48;4.00;59.50
3198;DHT22;1611;49.394;11.136;2023-03-05T02:44:14;4.00;59.20
3198;DHT22;1611;49.394;11.136;2023-03-05T02:46:41;4.00;59.60
3198;DHT22;1611;49.394;11.136;2023-03-05T02:49:08;4.00;59.40
3198;DHT22;1611;49.394;11.136;2023-03-05T02:51:35;4.00;59.50
3198;DHT22;1611;49.394;11.136;2023-03-05T02:54:02;3.90;59.30
3198;DHT22;1611;49.394;11.136;2023-03-05T02:56:30;3.90;59.80
3198;DHT22;1611;49.394;11.136;2023-03-05T02:58:56;3.90;60.00
3198;DHT22;1611;49.394;11.136;2023-03-05T03:01:23;3.90;60.10
3198;DHT22;1611;49.394;11.136;2023-03-05T03:03:52;3.80;60.00
3198;DHT22;1611;49.394;11.136;2023-03-05T03:06:19;3.90;60.00
3198;DHT22;1611;49.394;11.136;2023-03-05T03:08:46;3.80;59.70
3198;DHT22;1611;49.394;11.136;2023-03-05T03:11:12;3.80;59.50
3198;DHT22;1611;49.394;11.136;2023-03-05T03:13:41;3.80;60.00
3198;DHT22;1611;49.394;11.136;2023-03-05T03:16:09;3.80;60.20
3198;DHT22;1611;49.394;11.136;2023-03-05T03:18:36;3.80;60.30
3198;DHT22;1611;49.394;11.136;2023-03-05T03:21:03;3.80;60.40
3198;DHT22;1611;49.394;11.136;2023-03-05T03:23:30;3.80;60.20
3198;DHT22;1611;49.394;11.136;2023-03-05T03:25:57;3.80;60.00
3198;DHT22;1611;49.394;11.136;2023-03-05T03:28:24;3.80;60.10
3198;DHT22;1611;49.394;11.136;2023-03-05T03:30:52;3.80;60.30
3198;DHT22;1611;49.394;11.136;2023-03-05T03:33:19;3.80;60.30
3198;DHT22;1611;49.394;11.136;2023-03-05T03:35:45;3.80;59.80
3198;DHT22;1611;49.394;11.136;2023-03-05T03:38:12;3.80;59.60
3198;DHT22;1611;49.394;11.136;2023-03-05T03:40:39;3.80;59.60
3198;DHT22;1611;49.394;11.136;2023-03-05T03:43:06;3.70;59.60
3198;DHT22;1611;49.394;11.136;2023-03-05T03:45:33;3.90;59.70
3198;DHT22;1611;49.394;11.136;2023-03-05T03:48:01;3.80;59.40
3198;DHT22;1611;49.394;11.136;2023-03-05T03:50:28;3.80;59.30
3198;DHT22;1611;49.394;11.136;2023-03-05T03:52:55;3.90;59.40
3198;DHT22;1611;49.394;11.136;2023-03-05T03:55:21;3.80;59.00
3198;DHT22;1611;49.394;11.136;2023-03-05T03:57:48;3.80;58.80
3198;DHT22;1611;49.394;11.136;2023-03-05T04:00:16;3.80;58.70
3198;DHT22;1611;49.394;11.136;2023-03-05T04:02:43;3.80;59.00
3198;DHT22;1611;49.394;11.136;2023-03-05T04:05:11;3.70;59.10
3198;DHT22;1611;49.394;11.136;2023-03-05T04:07:38;3.80;59.20
3198;DHT22;1611;49.394;11.136;2023-03-05T04:10:05;3.70;59.20
3198;DHT22;1611;49.394;11.136;2023-03-05T04:12:32;3.70;58.70
3198;DHT22;1611;49.394;11.136;2023-03-05T04:14:59;3.70;59.10
3198;DHT22;1611;49.394;11.136;2023-03-05T04:17:25;3.80;58.70
3198;DHT22;1611;49.394;11.136;2023-03-05T04:19:52;3.70;58.80
3198;DHT22;1611;49.394;11.136;2023-03-05T04:22:20;3.70;58.40
3198;DHT22;1611;49.394;11.136;2023-03-05T04:24:47;3.70;59.10
3198;DHT22;1611;49.394;11.136;2023-03-05T04:27:14;3.70;59.00
3198;DHT22;1611;49.394;11.136;2023-03-05T04:29:40;3.80;58.80
3198;DHT22;1611;49.394;11.136;2023-03-05T04:32:07;3.70;59.00
3198;DHT22;1611;49.394;11.136;2023-03-05T04:34:35;3.80;58.90
3198;DHT22;1611;49.394;11.136;2023-03-05T04:37:02;3.80;59.10
3198;DHT22;1611;49.394;11.136;2023-03-05T04:39:30;3.70;59.40
3198;DHT22;1611;49.394;11.136;2023-03-05T04:41:57;3.70;59.50
3198;DHT22;1611;49.394;11.136;2023-03-05T04:44:24;3.80;59.30
3198;DHT22;1611;49.394;11.136;2023-03-05T04:46:51;3.70;59.00
3198;DHT22;1611;49.394;11.136;2023-03-05T04:49:17;3.70;59.10
3198;DHT22;1611;49.394;11.136;2023-03-05T04:51:44;3.80;59.10
3198;DHT22;1611;49.394;11.136;2023-03-05T04:54:11;3.80;59.30
3198;DHT22;1611;49.394;11.136;2023-03-05T04:56:39;3.70;58.80
3198;DHT22;1611;49.394;11.136;2023-03-05T04:59:05;3.70;58.80
3198;DHT22;1611;49.394;11.136;2023-03-05T05:01:32;3.70;58.90
3198;DHT22;1611;49.394;11.136;2023-03-05T05:04:00;3.80;59.20
3198;DHT22;1611;49.394;11.136;2023-03-05T05:06:26;3.70;59.30
3198;DHT22;1611;49.394;11.136;2023-03-05T05:08:53;3.80;59.00
3198;DHT22;1611;49.394;11.136;2023-03-05T05:11:20;3.80;58.60
3198;DHT22;1611;49.394;11.136;2023-03-05T05:13:48;3.80;58.90
3198;DHT22;1611;49.394;11.136;2023-03-05T05:16:15;3.70;59.00
3198;DHT22;1611;49.394;11.136;2023-03-05T05:18:41;3.70;59.10
3198;DHT22;1611;49.394;11.136;2023-03-05T05:21:10;3.70;59.10
3198;DHT22;1611;49.394;11.136;2023-03-05T05:23:36;3.70;59.30
3198;DHT22;1611;49.394;11.136;2023-03-05T05:26:05;3.60;59.50
3198;DHT22;1611;49.394;11.136;2023-03-05T05:28:32;3.70;60.10
3198;DHT22;1611;49.394;11.136;2023-03-05T05:31:05;3.70;59.70
3198;DHT22;1611;49.394;11.136;2023-03-05T05:33:32;3.70;59.70
3198;DHT22;1611;49.394;11.136;2023-03-05T05:36:00;3.70;59.40
3198;DHT22;1611;49.394;11.136;2023-03-05T05:38:27;3.70;59.60
3198;DHT22;1611;49.394;11.136;2023-03-05T05:40:53;3.70;59.90
3198;DHT22;1611;49.394;11.136;2023-03-05T05:43:20;3.70;60.10
3198;DHT22;1611;49.394;11.136;2023-03-05T05:45:47;3.80;60.80
3198;DHT22;1611;49.394;11.136;2023-03-05T05:48:15;3.70;59.80
3198;DHT22;1611;49.394;11.136;2023-03-05T05:50:42;3.70;60.00
3198;DHT22;1611;49.394;11.136;2023-03-05T05:53:08;3.70;60.10
3198;DHT22;1611;49.394;11.136;2023-03-05T05:55:38;3.70;60.20
3198;DHT22;1611;49.394;11.136;2023-03-05T05:58:05;3.70;60.10
3198;DHT22;1611;49.394;11.136;2023-03-05T06:00:32;3.70;60.00
3198;DHT22;1611;49.394;11.136;2023-03-05T06:02:58;3.70;59.90
3198;DHT22;1611;49.394;11.136;2023-03-05T06:05:27;3.70;60.10
3198;DHT22;1611;49.394;11.136;2023-03-05T06:07:53;3.70;60.00
3198;DHT22;1611;49.394;11.136;2023-03-05T06:10:20;3.80;60.20
3198;DHT22;1611;49.394;11.136;2023-03-05T06:12:47;3.70;60.20
3198;DHT22;1611;49.394;11.136;2023-03-05T06:15:13;3.70;60.40
3198;DHT22;1611;49.394;11.136;2023-03-05T06:17:40;3.70;60.40
3198;DHT22;1611;49.394;11.136;2023-03-05T06:20:08;3.70;60.40
3198;DHT22;1611;49.394;11.136;2023-03-05T06:22:37;3.70;60.50
3198;DHT22;1611;49.394;11.136;2023-03-05T06:25:05;3.70;60.30
3198;DHT22;1611;49.394;11.136;2023-03-05T06:27:33;3.80;60.30
3198;DHT22;1611;49.394;11.136;2023-03-05T06:30:01;3.90;60.00
3198;DHT22;1611;49.394;11.136;2023-03-05T06:32:28;3.80;59.70
3198;DHT22;1611;49.394;11.136;2023-03-05T06:34:54;3.80;60.30
3198;DHT22;1611;49.394;11.136;2023-03-05T06:37:21;3.80;60.40
3198;DHT22;1611;49.394;11.136;2023-03-05T06:39:49;3.70;61.50
3198;DHT22;1611;49.394;11.136;2023-03-05T06:42:16;3.80;60.60
3198;DHT22;1611;49.394;11.136;2023-03-05T06:44:44;3.80;60.00
3198;DHT22;1611;49.394;11.136;2023-03-05T06:47:11;3.90;59.60
3198;DHT22;1611;49.394;11.136;2023-03-05T06:49:39;3.90;59.90
3198;DHT22;1611;49.394;11.136;2023-03-05T06:52:06;4.00;59.50
3198;DHT22;1611;49.394;11.136;2023-03-05T06:54:34;4.10;59.20
3198;DHT22;1611;49.394;11.136;2023-03-05T06:57:03;4.10;59.10
3198;DHT22;1611;49.394;11.136;2023-03-05T06:59:29;4.10;59.10
3198;DHT22;1611;49.394;11.136;2023-03-05T07:01:56;4.10;59.10
3198;DHT22;1611;49.394;11.136;2023-03-05T07:04:23;4.10;58.80
3198;DHT22;1611;49.394;11.136;2023-03-05T07:06:50;4.20;59.00
3198;DHT22;1611;49.394;11.136;2023-03-05T07:09:16;4.20;58.70
3198;DHT22;1611;49.394;11.136;2023-03-05T07:11:44;4.20;58.60
3198;DHT22;1611;49.394;11.136;2023-03-05T07:14:12;4.20;59.10
3198;DHT22;1611;49.394;11.136;2023-03-05T07:16:39;4.10;59.30
3198;DHT22;1611;49.394;11.136;2023-03-05T07:19:05;4.10;59.10
3198;DHT22;1611;49.394;11.136;2023-03-05T07:21:35;4.10;59.50
3198;DHT22;1611;49.394;11.136;2023-03-05T07:24:03;4.10;59.50
3198;DHT22;1611;49.394;11.136;2023-03-05T07:26:31;4.10;59.30
3198;DHT22;1611;49.394;11.136;2023-03-05T07:28:59;4.10;59.20
3198;DHT22;1611;49.394;11.136;2023-03-05T07:31:27;4.10;59.30
3198;DHT22;1611;49.394;11.136;2023-03-05T07:33:57;4.20;59.40
3198;DHT22;1611;49.394;11.136;2023-03-05T07:36:25;4.20;59.40
3198;DHT22;1611;49.394;11.136;2023-03-05T07:38:52;4.20;59.10
3198;DHT22;1611;49.394;11.136;2023-03-05T07:41:19;4.30;58.90
3198;DHT22;1611;49.394;11.136;2023-03-05T07:44:02;4.40;58.60
3198;DHT22;1611;49.394;11.136;2023-03-05T07:46:32;4.40;58.20
3198;DHT22;1611;49.394;11.136;2023-03-05T07:48:59;4.50;58.40
3198;DHT22;1611;49.394;11.136;2023-03-05T07:51:26;4.50;58.30
3198;DHT22;1611;49.394;11.136;2023-03-05T07:53:55;4.60;58.10
3198;DHT22;1611;49.394;11.136;2023-03-05T07:56:23;4.70;57.90
3198;DHT22;1611;49.394;11.136;2023-03-05T07:58:50;4.80;61.40
3198;DHT22;1611;49.394;11.136;2023-03-05T08:01:17;4.90;56.90
3198;DHT22;1611;49.394;11.136;2023-03-05T08:03:46;5.00;57.10
3198;DHT22;1611;49.394;11.136;2023-03-05T08:06:12;5.10;55.90
3198;DHT22;1611;49.394;11.136;2023-03-05T08:08:39;5.20;55.30
3198;DHT22;1611;49.394;11.136;2023-03-05T08:11:09;5.20;54.30
3198;DHT22;1611;49.394;11.136;2023-03-05T08:13:37;5.30;54.30
3198;DHT22;1611;49.394;11.136;2023-03-05T08:16:04;5.30;54.00
3198;DHT22;1611;49.394;11.136;2023-03-05T08:18:31;5.40;53.60
3198;DHT22;1611;49.394;11.136;2023-03-05T08:20:59;5.40;53.70
3198;DHT22;1611;49.394;11.136;2023-03-05T08:23:26;5.50;52.40
3198;DHT22;1611;49.394;11.136;2023-03-05T08:25:53;5.60;51.90
3198;DHT22;1611;49.394;11.136;2023-03-05T08:28:20;5.70;51.70
3198;DHT22;1611;49.394;11.136;2023-03-05T08:30:48;5.70;51.00
3198;DHT22;1611;49.394;11.136;2023-03-05T08:33:15;5.80;50.00
3198;DHT22;1611;49.394;11.136;2023-03-05T08:35:42;5.80;49.00
3198;DHT22;1611;49.394;11.136;2023-03-05T08:38:11;5.70;49.70
3198;DHT22;1611;49.394;11.136;2023-03-05T08:40:38;5.80;48.90
3198;DHT22;1611;49.394;11.136;2023-03-05T08:43:05;5.90;48.20
3198;DHT22;1611;49.394;11.136;2023-03-05T08:45:31;6.00;47.50
3198;DHT22;1611;49.394;11.136;2023-03-05T08:47:58;6.20;47.10
3198;DHT22;1611;49.394;11.136;2023-03-05T08:50:25;6.30;46.60
3198;DHT22;1611;49.394;11.136;2023-03-05T08:52:52;6.30;45.80
3198;DHT22;1611;49.394;11.136;2023-03-05T08:55:21;6.30;45.30
3198;DHT22;1611;49.394;11.136;2023-03-05T08:57:48;6.30;45.30
3198;DHT22;1611;49.394;11.136;2023-03-05T09:00:15;6.10;45.20
3198;DHT22;1611;49.394;11.136;2023-03-05T09:02:42;6.10;44.90
3198;DHT22;1611;49.394;11.136;2023-03-05T09:05:09;6.00;45.70
3198;DHT22;1611;49.394;11.136;2023-03-05T09:07:36;6.00;44.90
3198;DHT22;1611;49.394;11.136;2023-03-05T09:10:03;5.90;45.00
3198;DHT22;1611;49.394;11.136;2023-03-05T09:12:32;5.80;45.90
3198;DHT22;1611;49.394;11.136;2023-03-05T09:14:58;5.80;46.10
3198;DHT22;1611;49.394;11.136;2023-03-05T09:17:25;5.80;46.70
3198;DHT22;1611;49.394;11.136;2023-03-05T09:19:52;5.80;45.10
3198;DHT22;1611;49.394;11.136;2023-03-05T09:22:19;5.80;41.70
3198;DHT22;1611;49.394;11.136;2023-03-05T09:24:46;5.50;40.20
3198;DHT22;1611;49.394;11.136;2023-03-05T09:27:12;5.50;41.60
3198;DHT22;1611;49.394;11.136;2023-03-05T09:29:40;5.50;42.10
3198;DHT22;1611;49.394;11.136;2023-03-05T09:32:07;5.40;41.90
3198;DHT22;1611;49.394;11.136;2023-03-05T09:34:34;5.50;42.60
3198;DHT22;1611;49.394;11.136;2023-03-05T09:37:02;5.50;41.90
3198;DHT22;1611;49.394;11.136;2023-03-05T09:39:28;5.60;42.30
3198;DHT22;1611;49.394;11.136;2023-03-05T09:42:06;5.50;42.10
3198;DHT22;1611;49.394;11.136;2023-03-05T09:44:42;5.60;42.60
3198;DHT22;1611;49.394;11.136;2023-03-05T09:47:23;5.60;42.00
3198;DHT22;1611;49.394;11.136;2023-03-05T09:49:57;5.60;41.70
3198;DHT22;1611;49.394;11.136;2023-03-05T09:52:34;5.70;42.00
3198;DHT22;1611;49.394;11.136;2023-03-05T09:55:10;5.60;41.70
3198;DHT22;1611;49.394;11.136;2023-03-05T09:57:40;5.50;42.10
3198;DHT22;1611;49.394;11.136;2023-03-05T10:00:19;5.50;42.20
3198;DHT22;1611;49.394;11.136;2023-03-05T10:02:52;5.40;41.50
3198;DHT22;1611;49.394;11.136;2023-03-05T10:05:28;5.30;42.60
3198;DHT22;1611;49.394;11.136;2023-03-05T10:07:59;5.20;42.10
3198;DHT22;1611;49.394;11.136;2023-03-05T10:10:29;5.20;42.90
3198;DHT22;1611;49.394;11.136;2023-03-05T10:13:01;5.10;43.50
3198;DHT22;1611;49.394;11.136;2023-03-05T10:15:36;5.10;43.80
3198;DHT22;1611;49.394;11.136;2023-03-05T10:18:13;5.10;43.80
3198;DHT22;1611;49.394;11.136;2023-03-05T10:20:53;5.10;43.90
3198;DHT22;1611;49.394;11.136;2023-03-05T10:26:15;4.90;44.40
3198;DHT22;1611;49.394;11.136;2023-03-05T10:28:47;4.80;44.50
3198;DHT22;1611;49.394;11.136;2023-03-05T10:31:38;4.80;44.90
3198;DHT22;1611;49.394;11.136;2023-03-05T10:34:31;4.80;44.20
3198;DHT22;1611;49.394;11.136;2023-03-05T10:37:15;4.90;42.80
3198;DHT22;1611;49.394;11.136;2023-03-05T10:39:55;4.90;42.50
3198;DHT22;1611;49.394;11.136;2023-03-05T10:42:27;4.90;42.90
3198;DHT22;1611;49.394;11.136;2023-03-05T10:44:57;5.00;41.90
3198;DHT22;1611;49.394;11.136;2023-03-05T10:47:31;5.00;42.90
3198;DHT22;1611;49.394;11.136;2023-03-05T10:50:02;4.90;42.60
3198;DHT22;1611;49.394;11.136;2023-03-05T10:52:39;5.00;41.70
3198;DHT22;1611;49.394;11.136;2023-03-05T10:55:13;5.10;41.70
3198;DHT22;1611;49.394;11.136;2023-03-05T10:57:41;5.10;41.60
3198;DHT22;1611;49.394;11.136;2023-03-05T11:00:16;5.10;41.30
3198;DHT22;1611;49.394;11.136;2023-03-05T11:02:57;5.30;41.30
3198;DHT22;1611;49.394;11.136;2023-03-05T11:05:43;5.30;40.90
3198;DHT22;1611;49.394;11.136;2023-03-05T11:08:25;5.30;41.00
3198;DHT22;1611;49.394;11.136;2023-03-05T11:11:04;5.40;41.60
3198;DHT22;1611;49.394;11.136;2023-03-05T11:13:31;5.50;41.60
3198;DHT22;1611;49.394;11.136;2023-03-05T11:15:59;5.50;40.60
3198;DHT22;1611;49.394;11.136;2023-03-05T11:18:27;5.70;40.30
3198;DHT22;1611;49.394;11.136;2023-03-05T11:21:08;5.80;39.40
3198;DHT22;1611;49.394;11.136;2023-03-05T11:23:35;5.80;38.80
3198;DHT22;1611;49.394;11.136;2023-03-05T11:26:03;5.80;39.30
3198;DHT22;1611;49.394;11.136;2023-03-05T11:28:34;6.10;37.90
3198;DHT22;1611;49.394;11.136;2023-03-05T11:31:04;6.10;36.50
3198;DHT22;1611;49.394;11.136;2023-03-05T11:33:35;6.20;36.60
3198;DHT22;1611;49.394;11.136;2023-03-05T11:36:11;6.10;36.70
3198;DHT22;1611;49.394;11.136;2023-03-05T11:38:49;6.10;36.80
3198;DHT22;1611;49.394;11.136;2023-03-05T11:41:18;6.00;37.10
3198;DHT22;1611;49.394;11.136;2023-03-05T11:43:47;5.90;38.30
3198;DHT22;1611;49.394;11.136;2023-03-05T11:46:15;5.90;39.00
3198;DHT22;1611;49.394;11.136;2023-03-05T11:48:45;5.80;38.90
3198;DHT22;1611;49.394;11.136;2023-03-05T11:51:17;5.90;38.60
3198;DHT22;1611;49.394;11.136;2023-03-05T11:53:49;5.90;38.50
3198;DHT22;1611;49.394;11.136;2023-03-05T11:56:20;5.90;38.00
3198;DHT22;1611;49.394;11.136;2023-03-05T11:58:50;6.10;36.60
3198;DHT22;1611;49.394;11.136;2023-03-05T12:01:19;6.30;34.60
3198;DHT22;1611;49.394;11.136;2023-03-05T12:03:48;6.20;33.30
3198;DHT22;1611;49.394;11.136;2023-03-05T12:06:20;6.20;33.60
3198;DHT22;1611;49.394;11.136;2023-03-05T12:08:54;6.20;33.10
3198;DHT22;1611;49.394;11.136;2023-03-05T12:11:24;6.30;32.40
3198;DHT22;1611;49.394;11.136;2023-03-05T12:13:54;6.20;32.30
3198;DHT22;1611;49.394;11.136;2023-03-05T12:16:27;6.10;33.00
3198;DHT22;1611;49.394;11.136;2023-03-05T12:19:08;6.10;33.10
3198;DHT22;1611;49.394;11.136;2023-03-05T12:21:38;6.00;32.60
3198;DHT22;1611;49.394;11.136;2023-03-05T12:27:08;5.90;33.70
3198;DHT22;1611;49.394;11.136;2023-03-05T12:29:43;5.80;34.10
3198;DHT22;1611;49.394;11.136;2023-03-05T12:35:25;5.70;34.10
3198;DHT22;1611;49.394;11.136;2023-03-05T12:38:03;5.70;33.90
3198;DHT22;1611;49.394;11.136;2023-03-05T12:40:31;5.60;33.80
3198;DHT22;1611;49.394;11.136;2023-03-05T12:42:59;5.70;34.50
3198;DHT22;1611;49.394;11.136;2023-03-05T12:45:42;5.80;34.70
3198;DHT22;1611;49.394;11.136;2023-03-05T12:48:42;5.90;34.50
3198;DHT22;1611;49.394;11.136;2023-03-05T12:51:30;6.00;33.70
3198;DHT22;1611;49.394;11.136;2023-03-05T12:54:21;6.10;33.80
3198;DHT22;1611;49.394;11.136;2023-03-05T12:56:49;6.20;34.00
3198;DHT22;1611;49.394;11.136;2023-03-05T12:59:19;6.20;34.00
3198;DHT22;1611;49.394;11.136;2023-03-05T13:01:51;6.20;34.00
3198;DHT22;1611;49.394;11.136;2023-03-05T13:04:23;6.20;34.30
3198;DHT22;1611;49.394;11.136;2023-03-05T13:06:59;6.20;34.30
3198;DHT22;1611;49.394;11.136;2023-03-05T13:09:28;6.30;34.00
3198;DHT22;1611;49.394;11.136;2023-03-05T13:11:56;6.20;33.40
3198;DHT22;1611;49.394;11.136;2023-03-05T13:14:39;6.30;33.00
3198;DHT22;1611;49.394;11.136;2023-03-05T13:17:33;6.30;33.40
3198;DHT22;1611;49.394;11.136;2023-03-05T13:20:03;6.30;33.60
3198;DHT22;1611;49.394;11.136;2023-03-05T13:23:07;6.20;33.40
3198;DHT22;1611;49.394;11.136;2023-03-05T13:25:38;6.10;33.40
3198;DHT22;1611;49.394;11.136;2023-03-05T13:28:10;6.10;33.90
3198;DHT22;1611;49.394;11.136;2023-03-05T13:30:37;5.90;33.60
3198;DHT22;1611;49.394;11.136;2023-03-05T13:33:05;5.90;34.20
3198;DHT22;1611;49.394;11.136;2023-03-05T13:35:32;5.80;33.50
3198;DHT22;1611;49.394;11.136;2023-03-05T13:38:00;5.80;34.40
3198;DHT22;1611;49.394;11.136;2023-03-05T13:40:29;5.70;34.60
3198;DHT22;1611;49.394;11.136;2023-03-05T13:43:08;5.60;35.10
3198;DHT22;1611;49.394;11.136;2023-03-05T13:45:36;5.60;34.60
3198;DHT22;1611;49.394;11.136;2023-03-05T13:48:05;5.70;35.00
3198;DHT22;1611;49.394;11.136;2023-03-05T13:50:34;5.80;35.20
3198;DHT22;1611;49.394;11.136;2023-03-05T13:53:15;5.80;34.90
3198;DHT22;1611;49.394;11.136;2023-03-05T13:55:43;5.90;35.10
3198;DHT22;1611;49.394;11.136;2023-03-05T13:58:42;5.90;34.60
3198;DHT22;1611;49.394;11.136;2023-03-05T14:01:13;5.90;34.00
3198;DHT22;1611;49.394;11.136;2023-03-05T14:03:40;5.80;34.80
3198;DHT22;1611;49.394;11.136;2023-03-05T14:06:09;5.70;34.70
3198;DHT22;1611;49.394;11.136;2023-03-05T14:08:37;5.70;35.20
3198;DHT22;1611;49.394;11.136;2023-03-05T14:11:12;5.60;34.90
3198;DHT22;1611;49.394;11.136;2023-03-05T14:13:40;5.70;34.90
3198;DHT22;1611;49.394;11.136;2023-03-05T14:16:09;5.70;35.60
3198;DHT22;1611;49.394;11.136;2023-03-05T14:18:37;5.70;35.30
3198;DHT22;1611;49.394;11.136;2023-03-05T14:21:05;5.80;35.10
3198;DHT22;1611;49.394;11.136;2023-03-05T14:23:43;5.70;35.10
3198;DHT22;1611;49.394;11.136;2023-03-05T14:26:18;5.80;35.20
3198;DHT22;1611;49.394;11.136;2023-03-05T14:28:50;5.80;35.40
3198;DHT22;1611;49.394;11.136;2023-03-05T14:31:17;5.80;35.70
3198;DHT22;1611;49.394;11.136;2023-03-05T14:33:45;5.80;35.90
3198;DHT22;1611;49.394;11.136;2023-03-05T14:36:12;5.80;35.40
3198;DHT22;1611;49.394;11.136;2023-03-05T14:38:42;5.70;35.40
3198;DHT22;1611;49.394;11.136;2023-03-05T14:41:26;5.80;35.80
3198;DHT22;1611;49.394;11.136;2023-03-05T14:43:56;5.80;35.50
3198;DHT22;1611;49.394;11.136;2023-03-05T14:46:23;5.80;35.40
3198;DHT22;1611;49.394;11.136;2023-03-05T14:48:50;5.80;35.80
3198;DHT22;1611;49.394;11.136;2023-03-05T14:51:17;5.70;35.80
3198;DHT22;1611;49.394;11.136;2023-03-05T14:53:47;5.60;36.00
3198;DHT22;1611;49.394;11.136;2023-03-05T14:56:17;5.60;36.30
3198;DHT22;1611;49.394;11.136;2023-03-05T14:58:47;5.60;36.50
3198;DHT22;1611;49.394;11.136;2023-03-05T15:01:14;5.60;36.90
3198;DHT22;1611;49.394;11.136;2023-03-05T15:03:41;5.50;37.20
3198;DHT22;1611;49.394;11.136;2023-03-05T15:06:16;5.60;37.50
3198;DHT22;1611;49.394;11.136;2023-03-05T15:08:45;5.50;36.70
3198;DHT22;1611;49.394;11.136;2023-03-05T15:11:11;5.50;37.30
3198;DHT22;1611;49.394;11.136;2023-03-05T15:13:38;5.40;37.40
3198;DHT22;1611;49.394;11.136;2023-03-05T15:16:06;5.40;37.30
3198;DHT22;1611;49.394;11.136;2023-03-05T15:18:33;5.40;37.30
3198;DHT22;1611;49.394;11.136;2023-03-05T15:21:00;5.40;37.80
3198;DHT22;1611;49.394;11.136;2023-03-05T15:23:27;5.40;38.20
3198;DHT22;1611;49.394;11.136;2023-03-05T15:26:01;5.40;37.30
3198;DHT22;1611;49.394;11.136;2023-03-05T15:28:31;5.30;38.00
3198;DHT22;1611;49.394;11.136;2023-03-05T15:30:59;5.40;38.00
3198;DHT22;1611;49.394;11.136;2023-03-05T15:33:26;5.40;38.10
3198;DHT22;1611;49.394;11.136;2023-03-05T15:35:52;5.30;38.40
3198;DHT22;1611;49.394;11.136;2023-03-05T15:38:20;5.30;38.50
3198;DHT22;1611;49.394;11.136;2023-03-05T15:40:47;5.30;38.40
3198;DHT22;1611;49.394;11.136;2023-03-05T15:43:16;5.30;38.60
3198;DHT22;1611;49.394;11.136;2023-03-05T15:45:42;5.30;39.20
3198;DHT22;1611;49.394;11.136;2023-03-05T15:48:09;5.30;38.60
3198;DHT22;1611;49.394;11.136;2023-03-05T15:50:38;5.30;38.80
3198;DHT22;1611;49.394;11.136;2023-03-05T15:53:05;5.20;39.50
3198;DHT22;1611;49.394;11.136;2023-03-05T15:55:36;5.20;39.70
3198;DHT22;1611;49.394;11.136;2023-03-05T15:58:03;5.20;40.10
3198;DHT22;1611;49.394;11.136;2023-03-05T16:00:31;5.10;39.30
3198;DHT22;1611;49.394;11.136;2023-03-05T16:02:59;5.10;39.80
3198;DHT22;1611;49.394;11.136;2023-03-05T16:05:26;5.10;39.80
3198;DHT22;1611;49.394;11.136;2023-03-05T16:07:54;5.00;39.80
3198;DHT22;1611;49.394;11.136;2023-03-05T16:10:22;5.00;40.90
3198;DHT22;1611;49.394;11.136;2023-03-05T16:12:52;5.00;41.80
3198;DHT22;1611;49.394;11.136;2023-03-05T16:15:20;5.00;40.80
3198;DHT22;1611;49.394;11.136;2023-03-05T16:17:51;5.00;40.40
3198;DHT22;1611;49.394;11.136;2023-03-05T16:20:20;4.90;40.90
3198;DHT22;1611;49.394;11.136;2023-03-05T16:22:47;4.90;41.20
3198;DHT22;1611;49.394;11.136;2023-03-05T16:25:15;5.00;42.00